Time;durP1;ratioP1;P1;durP2;ratioP2;P2;SDS_P1;SDS_P2;PMS_P1;PMS_P2;Temp;Humidity;BMP_temperature;BMP_pressure;BME280_temperature;BME280_humidity;BME280_pressure;Samples;Min_cycle;Max_cycle;Signal;HPM_P1;HPM_P2
2022/05/16 00:02:03;;;;;;;13.70;4.95;;;16.40;94.00;;;;;;6253035;22;20150;-56
2022/05/16 00:04:29;;;;;;;9.77;4.50;;;16.30;94.10;;;;;;6245471;22;20003;-55
2022/05/16 00:06:54;;;;;;;11.88;4.63;;;16.30;94.10;;;;;;6247164;22;20053;-56
2022/05/16 00:09:20;;;;;;;9.52;4.43;;;16.20;94.20;;;;;;6242606;22;20065;-56
2022/05/16 00:11:45;;;;;;;9.15;4.65;;;16.20;94.20;;;;;;6251391;22;20446;-56
2022/05/16 00:14:11;;;;;;;8.57;4.35;;;16.20;94.10;;;;;;6251680;22;20043;-56
2022/05/16 00:16:37;;;;;;;11.60;4.75;;;16.20;94.00;;;;;;6250284;22;20103;-55
2022/05/16 00:19:03;;;;;;;12.30;4.32;;;16.30;93.90;;;;;;6249477;22;20003;-56
2022/05/16 00:21:29;;;;;;;9.52;4.13;;;16.30;93.80;;;;;;6246820;22;20007;-56
2022/05/16 00:23:54;;;;;;;9.60;4.50;;;16.20;93.80;;;;;;6244864;22;19999;-56
2022/05/16 00:26:20;;;;;;;8.93;4.47;;;16.20;93.70;;;;;;6241924;22;20014;-55
2022/05/16 00:28:45;;;;;;;8.05;4.60;;;16.20;93.70;;;;;;6252054;22;20011;-56
2022/05/16 00:31:11;;;;;;;7.28;4.47;;;16.10;93.80;;;;;;6249621;22;20440;-57
2022/05/16 00:33:36;;;;;;;12.50;4.68;;;16.60;93.70;;;;;;6251047;22;20035;-56
2022/05/16 00:36:02;;;;;;;12.48;4.68;;;16.20;93.50;;;;;;6245624;22;20081;-56
2022/05/16 00:38:28;;;;;;;10.13;4.38;;;16.30;93.40;;;;;;6244224;22;19996;-57
2022/05/16 00:40:53;;;;;;;9.18;4.28;;;16.30;93.40;;;;;;6249283;22;20452;-57
2022/05/16 00:43:24;;;;;;;11.10;4.40;;;16.20;93.60;;;;;;6225355;22;20550;-57
2022/05/16 00:45:50;;;;;;;12.20;4.90;;;16.00;93.90;;;;;;6245921;22;20018;-57
2022/05/16 00:48:16;;;;;;;10.90;4.35;;;15.90;94.10;;;;;;6211384;22;20061;-56
2022/05/16 00:50:41;;;;;;;10.70;4.60;;;15.90;94.20;;;;;;6248629;22;20008;-57
2022/05/16 00:53:07;;;;;;;9.45;4.40;;;15.90;94.20;;;;;;6244270;22;20003;-57
2022/05/16 00:55:34;;;;;;;9.95;4.50;;;16.10;94.10;;;;;;6252640;22;20102;-57
2022/05/16 00:58:01;;;;;;;10.90;5.03;;;16.10;94.00;;;;;;6252182;22;20006;-57
2022/05/16 01:00:32;;;;;;;8.70;5.10;;;16.00;94.20;;;;;;6247372;22;20014;-56
2022/05/16 01:05:44;;;;;;;8.32;4.45;;;16.00;94.40;;;;;;6249384;22;20428;-56
2022/05/16 01:08:15;;;;;;;8.05;4.22;;;15.10;94.30;;;;;;6244563;22;20382;-57
2022/05/16 01:10:41;;;;;;;11.65;5.03;;;15.90;94.50;;;;;;6254702;22;20003;-56
2022/05/16 01:13:07;;;;;;;10.13;4.82;;;16.00;94.30;;;;;;6255848;22;20333;-57
2022/05/16 01:15:43;;;;;;;7.20;4.10;;;16.00;94.40;;;;;;6248623;22;20480;-57
2022/05/16 01:18:13;;;;;;;13.48;4.78;;;16.10;94.00;;;;;;6252132;22;20088;-56
2022/05/16 01:21:04;;;;;;;10.23;4.47;;;16.10;93.60;;;;;;6247695;22;20004;-57
2022/05/16 01:23:48;;;;;;;15.77;4.70;;;16.10;93.50;;;;;;6249094;22;20515;-56
2022/05/16 01:26:17;;;;;;;8.02;4.15;;;16.10;93.60;;;;;;6189354;22;20520;-57
2022/05/16 01:28:42;;;;;;;9.32;4.82;;;16.10;93.60;;;;;;6256594;22;20035;-56
2022/05/16 01:31:08;;;;;;;9.40;3.88;;;16.10;93.80;;;;;;6258524;22;20031;-57
2022/05/16 01:33:33;;;;;;;13.35;4.85;;;15.90;94.00;;;;;;6250263;22;20014;-57
2022/05/16 01:35:59;;;;;;;9.68;4.40;;;15.90;94.10;;;;;;6245750;22;20371;-56
2022/05/16 01:38:27;;;;;;;11.32;4.22;;;15.90;94.30;;;;;;6249265;22;20065;-56
2022/05/16 01:40:56;;;;;;;8.23;4.15;;;15.80;94.30;;;;;;6254419;22;20014;-57
2022/05/16 01:43:24;;;;;;;11.98;4.97;;;15.80;94.50;;;;;;6256801;22;20043;-56
2022/05/16 01:45:49;;;;;;;11.75;5.10;;;15.80;94.50;;;;;;6251856;22;20069;-56
2022/05/16 01:48:15;;;;;;;12.75;5.40;;;15.80;94.50;;;;;;6251730;22;20007;-56
2022/05/16 01:50:41;;;;;;;11.32;4.72;;;15.80;94.60;;;;;;6251532;22;20467;-57
2022/05/16 01:53:07;;;;;;;9.60;4.25;;;16.00;94.80;;;;;;6250570;22;20169;-56
2022/05/16 01:55:33;;;;;;;10.88;3.60;;;15.70;94.80;;;;;;6256123;22;20642;-57
2022/05/16 01:57:58;;;;;;;9.98;4.43;;;15.60;94.80;;;;;;6252832;22;20088;-55
2022/05/16 02:00:23;;;;;;;12.10;4.30;;;15.60;94.70;;;;;;6248909;22;20000;-55
2022/05/16 02:02:49;;;;;;;13.93;4.68;;;15.60;94.70;;;;;;6251702;22;20057;-56
2022/05/16 02:05:17;;;;;;;10.52;4.22;;;15.60;94.80;;;;;;6247510;22;20097;-56
2022/05/16 02:07:43;;;;;;;11.15;4.72;;;15.70;94.70;;;;;;6252579;22;20003;-56
2022/05/16 02:10:09;;;;;;;9.77;4.53;;;15.70;94.60;;;;;;6258082;22;20098;-56
2022/05/16 02:12:35;;;;;;;9.90;4.07;;;15.60;94.70;;;;;;6254267;22;20026;-56
2022/05/16 02:15:01;;;;;;;12.48;4.22;;;15.60;94.90;;;;;;6252010;22;20098;-56
2022/05/16 02:17:27;;;;;;;7.70;4.13;;;15.60;94.70;;;;;;6249661;22;20431;-56
2022/05/16 02:19:52;;;;;;;9.50;4.55;;;15.60;94.80;;;;;;6255019;22;20065;-56
2022/05/16 02:25:03;;;;;;;8.73;4.05;;;15.60;94.80;;;;;;6236328;22;20017;-56
2022/05/16 02:27:28;;;;;;;10.73;4.03;;;15.40;94.80;;;;;;6252896;22;20011;-56
2022/05/16 02:29:53;;;;;;;6.97;4.18;;;15.60;94.90;;;;;;6252110;22;20057;-56
2022/05/16 02:32:19;;;;;;;9.20;3.78;;;15.60;94.90;;;;;;6251795;22;20410;-57
2022/05/16 02:34:45;;;;;;;11.65;4.10;;;15.60;94.60;;;;;;6255458;22;19999;-56
2022/05/16 02:37:11;;;;;;;10.23;4.22;;;15.60;94.80;;;;;;6256107;22;20011;-56
2022/05/16 02:39:36;;;;;;;9.68;4.38;;;15.70;94.90;;;;;;6253988;22;20008;-58
2022/05/16 02:42:02;;;;;;;11.10;4.60;;;15.80;95.10;;;;;;6226212;22;20057;-57
2022/05/16 02:44:28;;;;;;;9.35;4.15;;;15.50;94.90;;;;;;6249448;22;20094;-56
2022/05/16 02:46:53;;;;;;;8.73;3.45;;;15.60;94.80;;;;;;6250455;22;20448;-56
2022/05/16 02:49:21;;;;;;;7.18;4.15;;;15.70;94.60;;;;;;6250870;22;20007;-56
2022/05/16 02:51:46;;;;;;;9.55;4.07;;;15.70;94.60;;;;;;6254851;22;20220;-57
2022/05/16 02:54:12;;;;;;;8.30;3.90;;;15.70;94.30;;;;;;6255897;22;20019;-57
2022/05/16 02:56:37;;;;;;;8.13;3.80;;;15.70;94.40;;;;;;6249817;22;20015;-56
2022/05/16 02:59:03;;;;;;;10.60;4.15;;;15.90;94.20;;;;;;6249116;22;19999;-57
2022/05/16 03:01:29;;;;;;;9.57;3.80;;;15.90;94.10;;;;;;6252235;22;20037;-56
2022/05/16 03:03:55;;;;;;;12.55;4.70;;;15.90;93.90;;;;;;6255973;22;20019;-56
2022/05/16 03:06:20;;;;;;;9.95;3.97;;;15.80;94.00;;;;;;6254165;22;20391;-56
2022/05/16 03:08:46;;;;;;;7.68;4.10;;;15.90;94.00;;;;;;6255777;22;20433;-57
2022/05/16 03:11:11;;;;;;;6.55;3.78;;;16.00;93.60;;;;;;6258072;22;20020;-56
2022/05/16 03:13:37;;;;;;;8.50;3.67;;;16.10;93.60;;;;;;6251317;22;20420;-57
2022/05/16 03:16:03;;;;;;;8.55;3.75;;;16.10;93.60;;;;;;6250516;22;20128;-56
2022/05/16 03:18:29;;;;;;;7.90;3.92;;;16.00;93.70;;;;;;6254714;22;20012;-56
2022/05/16 03:20:54;;;;;;;11.13;4.03;;;16.00;93.70;;;;;;6253679;22;20057;-55
2022/05/16 03:23:20;;;;;;;8.95;4.18;;;15.90;93.80;;;;;;6250774;22;20098;-56
2022/05/16 03:25:45;;;;;;;7.88;3.85;;;16.00;93.90;;;;;;6254581;22;20075;-56
2022/05/16 03:28:11;;;;;;;10.20;3.80;;;15.90;93.90;;;;;;6252191;22;20055;-55
2022/05/16 03:30:38;;;;;;;8.18;3.28;;;15.90;93.90;;;;;;6249243;22;20008;-56
2022/05/16 03:33:04;;;;;;;11.40;3.83;;;15.80;94.10;;;;;;6254300;22;20023;-56
2022/05/16 03:35:30;;;;;;;6.95;4.00;;;15.80;94.20;;;;;;6249155;22;20486;-56
2022/05/16 03:37:55;;;;;;;8.57;3.67;;;15.70;94.30;;;;;;6258926;22;20499;-56
2022/05/16 03:43:05;;;;;;;12.07;3.85;;;15.90;94.00;;;;;;6253786;22;20029;-56
2022/05/16 03:45:30;;;;;;;8.38;3.88;;;15.90;94.10;;;;;;6247838;22;20003;-56
2022/05/16 03:47:56;;;;;;;12.98;4.88;;;15.80;94.20;;;;;;6250199;22;20429;-56
2022/05/16 03:50:21;;;;;;;5.90;3.78;;;15.80;94.20;;;;;;6249126;22;19996;-56
2022/05/16 03:52:47;;;;;;;11.00;4.45;;;15.90;94.20;;;;;;6252732;22;20016;-55
2022/05/16 03:55:14;;;;;;;9.82;4.00;;;15.30;94.00;;;;;;6255634;22;20000;-56
2022/05/16 03:57:40;;;;;;;5.85;3.45;;;15.90;94.10;;;;;;6253451;22;20007;-57
2022/05/16 04:00:09;;;;;;;10.27;4.45;;;16.80;94.10;;;;;;6249107;22;20034;-57
2022/05/16 04:02:36;;;;;;;10.45;4.15;;;16.00;93.90;;;;;;6250486;22;20214;-56
2022/05/16 04:05:02;;;;;;;8.82;4.30;;;16.00;93.90;;;;;;6246144;22;20496;-57
2022/05/16 04:07:27;;;;;;;9.02;3.75;;;15.90;94.00;;;;;;6254535;22;20083;-56
2022/05/16 04:09:53;;;;;;;8.70;3.95;;;16.00;94.00;;;;;;6254766;22;20034;-56
2022/05/16 04:12:18;;;;;;;8.60;3.60;;;15.90;94.10;;;;;;6252456;22;20066;-56
2022/05/16 04:14:44;;;;;;;8.13;4.00;;;15.90;94.00;;;;;;6253856;22;20008;-57
2022/05/16 04:17:09;;;;;;;8.68;3.95;;;16.00;94.00;;;;;;6259707;22;20003;-56
2022/05/16 04:19:36;;;;;;;6.70;3.70;;;16.00;94.10;;;;;;6251140;22;20493;-56
2022/05/16 04:22:02;;;;;;;13.07;4.43;;;16.00;94.00;;;;;;6258495;22;20019;-56
2022/05/16 04:24:27;;;;;;;8.63;4.15;;;16.10;93.90;;;;;;6250781;22;20510;-57
2022/05/16 04:26:53;;;;;;;7.38;3.75;;;16.10;94.00;;;;;;6253203;22;20004;-56
2022/05/16 04:29:18;;;;;;;9.82;3.88;;;16.10;93.90;;;;;;6256452;22;20016;-57
2022/05/16 04:31:44;;;;;;;7.20;3.88;;;16.10;94.00;;;;;;6260409;22;20011;-57
2022/05/16 04:34:09;;;;;;;10.35;4.07;;;16.10;94.10;;;;;;6256578;22;20018;-57
2022/05/16 04:36:39;;;;;;;13.15;3.97;;;16.10;94.20;;;;;;6256873;22;20307;-57
2022/05/16 04:39:04;;;;;;;11.35;4.03;;;16.10;94.20;;;;;;6254794;22;20388;-57
2022/05/16 04:44:14;;;;;;;8.27;3.72;;;16.20;94.30;;;;;;6257888;22;20460;-57
2022/05/16 04:46:40;;;;;;;9.68;4.22;;;16.60;94.10;;;;;;6254122;22;20015;-56
2022/05/16 04:49:05;;;;;;;10.63;4.38;;;16.40;93.70;;;;;;6251376;22;20073;-57
2022/05/16 04:51:31;;;;;;;11.20;3.85;;;16.40;93.70;;;;;;6251049;22;20094;-56
2022/05/16 04:53:56;;;;;;;12.80;4.38;;;16.50;93.60;;;;;;6248294;22;20378;-56
2022/05/16 04:56:22;;;;;;;14.25;4.32;;;16.70;93.40;;;;;;6253400;22;20000;-57
2022/05/16 04:58:47;;;;;;;13.38;3.60;;;17.00;93.10;;;;;;6255703;22;20004;-56
2022/05/16 05:01:13;;;;;;;11.90;4.00;;;16.80;92.50;;;;;;6259789;22;20003;-56
2022/05/16 05:03:38;;;;;;;6.82;3.67;;;17.40;92.20;;;;;;6249747;22;20007;-57
2022/05/16 05:06:04;;;;;;;9.15;3.92;;;17.90;91.20;;;;;;6252102;22;20303;-57
2022/05/16 05:08:29;;;;;;;12.30;3.95;;;19.10;86.80;;;;;;6251648;22;20015;-56
2022/05/16 05:16:23;;;;;;;6.20;4.10;;;19.90;76.40;;;;;;6257107;22;20459;-57
2022/05/16 05:18:49;;;;;;;7.82;3.92;;;19.20;82.50;;;;;;6253361;22;20258;-56
2022/05/16 05:21:15;;;;;;;7.38;3.95;;;19.00;83.90;;;;;;6252890;22;20031;-57
2022/05/16 05:23:40;;;;;;;9.95;4.20;;;19.20;85.10;;;;;;6248652;22;20015;-57
2022/05/16 05:26:07;;;;;;;10.15;4.13;;;19.00;86.30;;;;;;6255038;22;20008;-56
2022/05/16 05:28:33;;;;;;;6.68;3.75;;;18.80;87.20;;;;;;6259424;22;20057;-56
2022/05/16 05:30:58;;;;;;;4.95;3.17;;;18.70;88.00;;;;;;6256602;22;20046;-57
2022/05/16 05:33:24;;;;;;;10.07;3.70;;;18.60;88.20;;;;;;6254175;22;20186;-57
2022/05/16 05:35:49;;;;;;;12.00;4.20;;;18.50;88.00;;;;;;6251778;22;20352;-56
2022/05/16 05:38:15;;;;;;;6.43;3.58;;;18.40;88.30;;;;;;6252914;22;20499;-57
2022/05/16 05:40:40;;;;;;;6.20;3.45;;;18.10;89.80;;;;;;6254209;22;20003;-57
2022/05/16 05:43:06;;;;;;;11.20;3.80;;;18.20;89.90;;;;;;6259706;22;20014;-57
2022/05/16 05:45:32;;;;;;;9.15;3.58;;;18.10;90.00;;;;;;6252262;22;20011;-57
2022/05/16 05:47:58;;;;;;;11.68;3.78;;;18.10;90.10;;;;;;6251395;22;20328;-57
2022/05/16 05:50:24;;;;;;;10.60;3.70;;;18.10;90.20;;;;;;6242739;22;20011;-57
2022/05/16 05:52:49;;;;;;;19.83;4.07;;;18.10;90.20;;;;;;6253434;22;20087;-56
2022/05/16 05:55:15;;;;;;;9.70;4.20;;;18.30;90.40;;;;;;6256580;22;20345;-57
2022/05/16 05:57:40;;;;;;;12.40;4.15;;;18.10;89.80;;;;;;6251719;22;20829;-57
2022/05/16 06:00:09;;;;;;;12.13;3.45;;;18.70;88.70;;;;;;6247940;22;20244;-56
2022/05/16 06:02:37;;;;;;;12.40;3.90;;;18.70;88.50;;;;;;6248724;22;20006;-56
2022/05/16 06:05:03;;;;;;;9.40;3.25;;;18.80;89.00;;;;;;6252729;22;20000;-57
2022/05/16 06:07:29;;;;;;;7.72;3.58;;;19.00;87.50;;;;;;6244359;22;20008;-57
2022/05/16 06:09:54;;;;;;;8.68;3.65;;;19.10;86.70;;;;;;6252713;22;20004;-56
2022/05/16 06:12:20;;;;;;;12.15;4.10;;;19.10;86.60;;;;;;6249434;22;20227;-56
2022/05/16 06:14:45;;;;;;;10.35;4.07;;;19.40;86.10;;;;;;6247862;22;20030;-56
2022/05/16 06:17:12;;;;;;;10.32;4.05;;;19.40;84.90;;;;;;6253250;22;19996;-56
2022/05/16 06:19:37;;;;;;;8.75;3.15;;;19.40;85.70;;;;;;6257550;22;20004;-57
2022/05/16 06:22:03;;;;;;;10.73;3.70;;;19.30;85.90;;;;;;6258096;22;20003;-56
2022/05/16 06:27:13;;;;;;;13.63;4.47;;;19.10;87.40;;;;;;6256909;22;20015;-57
2022/05/16 06:29:39;;;;;;;9.35;3.42;;;19.00;88.70;;;;;;6249281;22;20407;-57
2022/05/16 06:32:05;;;;;;;13.18;4.03;;;18.70;89.30;;;;;;6248760;22;20087;-55
2022/05/16 06:34:30;;;;;;;14.23;3.50;;;18.70;89.00;;;;;;6253050;22;20027;-56
2022/05/16 06:36:56;;;;;;;10.27;3.85;;;18.80;90.00;;;;;;6255258;22;20428;-55
2022/05/16 06:39:21;;;;;;;8.82;3.50;;;18.80;90.00;;;;;;6252542;22;20011;-55
2022/05/16 06:41:47;;;;;;;9.02;3.97;;;18.80;90.10;;;;;;6252441;22;20290;-56
2022/05/16 06:44:14;;;;;;;11.57;3.42;;;18.90;90.10;;;;;;6257023;22;20000;-55
2022/05/16 06:46:41;;;;;;;16.00;4.10;;;18.90;89.90;;;;;;6254429;22;20646;-57
2022/05/16 06:49:06;;;;;;;12.00;4.22;;;19.10;90.40;;;;;;6251019;22;20008;-56
2022/05/16 06:51:32;;;;;;;8.38;3.50;;;19.20;90.20;;;;;;6252453;22;20011;-56
2022/05/16 06:53:57;;;;;;;10.93;3.83;;;19.20;90.00;;;;;;6255004;22;20011;-56
2022/05/16 06:56:23;;;;;;;9.98;3.55;;;19.10;89.30;;;;;;6256366;22;20382;-57
2022/05/16 06:58:48;;;;;;;12.85;4.07;;;19.30;89.90;;;;;;6255048;22;20003;-55
2022/05/16 07:01:14;;;;;;;11.57;4.55;;;19.10;90.60;;;;;;6254914;22;20000;-56
2022/05/16 07:03:42;;;;;;;9.48;4.10;;;19.00;90.60;;;;;;6250037;22;20083;-56
2022/05/16 07:06:07;;;;;;;13.23;4.80;;;18.80;91.20;;;;;;6250702;22;20010;-56
2022/05/16 07:08:33;;;;;;;9.98;4.40;;;18.70;91.80;;;;;;6245524;22;20428;-56
2022/05/16 07:10:58;;;;;;;15.07;4.80;;;18.80;92.50;;;;;;6257351;22;20027;-57
2022/05/16 07:13:24;;;;;;;10.40;4.55;;;18.50;94.20;;;;;;6253644;22;20207;-57
2022/05/16 07:15:50;;;;;;;11.55;4.65;;;18.40;94.10;;;;;;6254862;22;20460;-56
2022/05/16 07:18:16;;;;;;;10.63;4.68;;;18.50;94.30;;;;;;6256664;22;20004;-56
2022/05/16 07:20:41;;;;;;;9.10;4.40;;;18.40;94.40;;;;;;6251854;22;20042;-56
2022/05/16 07:23:07;;;;;;;12.18;5.13;;;18.20;95.60;;;;;;6256012;22;20011;-56
2022/05/16 07:27:56;;;;;;;12.43;5.00;;;18.10;96.00;;;;;;6253271;22;20332;-57
2022/05/16 07:28:18;;;;;;;16.48;5.32;;;17.90;96.80;;;;;;6255272;22;20242;-56
2022/05/16 07:30:45;;;;;;;15.05;6.60;;;17.80;97.40;;;;;;6251277;22;20076;-56
2022/05/16 07:33:10;;;;;;;11.82;7.03;;;17.70;98.40;;;;;;6249309;22;20523;-56
2022/05/16 07:35:38;;;;;;;11.95;6.03;;;17.60;98.80;;;;;;6250852;22;20343;-56
2022/05/16 07:38:04;;;;;;;14.07;6.63;;;17.70;99.30;;;;;;6251069;22;20126;-57
2022/05/16 07:40:32;;;;;;;17.90;6.05;;;17.60;98.90;;;;;;6255702;22;20023;-56
2022/05/16 07:42:58;;;;;;;15.68;6.35;;;17.50;99.10;;;;;;6255122;22;20309;-56
2022/05/16 07:45:24;;;;;;;19.52;6.72;;;17.40;99.30;;;;;;6248943;22;20007;-56
2022/05/16 07:47:49;;;;;;;11.70;6.53;;;17.50;99.90;;;;;;6226575;22;20552;-57
2022/05/16 07:50:15;;;;;;;13.98;6.70;;;17.60;99.90;;;;;;6254234;22;20391;-56
2022/05/16 07:52:45;;;;;;;13.60;6.88;;;17.60;99.90;;;;;;6254110;22;20014;-56
2022/05/16 07:55:10;;;;;;;20.08;6.30;;;17.50;99.90;;;;;;6251217;22;20014;-57
2022/05/16 07:57:36;;;;;;;12.48;6.82;;;17.60;99.90;;;;;;6252430;22;20082;-57
2022/05/16 08:00:02;;;;;;;11.35;6.60;;;17.50;99.90;;;;;;6254204;22;20000;-57
2022/05/16 08:02:28;;;;;;;14.43;6.53;;;17.50;99.90;;;;;;6256299;22;20373;-56
2022/05/16 08:04:53;;;;;;;13.88;6.88;;;17.30;99.90;;;;;;6249828;22;20022;-56
2022/05/16 08:07:19;;;;;;;16.08;7.45;;;17.20;99.90;;;;;;6250800;22;20046;-56
2022/05/16 08:12:33;;;;;;;13.30;8.17;;;17.30;99.90;;;;;;6256830;22;20027;-56
2022/05/16 08:15:00;;;;;;;22.27;8.25;;;17.20;99.90;;;;;;6252685;22;20139;-57
2022/05/16 08:17:25;;;;;;;17.30;7.57;;;17.30;99.90;;;;;;6252510;22;19996;-56
2022/05/16 08:19:51;;;;;;;14.80;7.60;;;17.30;99.90;;;;;;6252999;22;20026;-56
2022/05/16 08:22:17;;;;;;;16.10;6.80;;;17.30;99.90;;;;;;6256459;22;20060;-56
2022/05/16 08:24:43;;;;;;;15.88;7.97;;;17.60;99.80;;;;;;6257229;22;20002;-56
2022/05/16 08:27:09;;;;;;;18.75;7.18;;;17.90;99.60;;;;;;6180223;22;20000;-55
2022/05/16 08:29:34;;;;;;;10.95;6.40;;;18.10;98.60;;;;;;6250710;22;20407;-56
2022/05/16 08:32:01;;;;;;;16.13;6.55;;;18.60;98.60;;;;;;6250571;22;20030;-56
2022/05/16 08:34:27;;;;;;;15.40;6.25;;;18.90;97.50;;;;;;6257000;22;20468;-57
2022/05/16 08:39:52;;;;;;;12.63;5.70;;;19.70;95.50;;;;;;6254134;22;20339;-56
2022/05/16 08:42:19;;;;;;;14.85;5.47;;;20.30;94.50;;;;;;6256845;22;20008;-56
2022/05/16 08:45:04;;;;;;;11.35;5.43;;;20.80;93.60;;;;;;6222937;22;20009;-57
2022/05/16 08:47:37;;;;;;;24.95;5.78;;;22.40;91.20;;;;;;6249186;22;20003;-56
2022/05/16 08:50:08;;;;;;;10.77;5.55;;;22.10;89.70;;;;;;6254166;22;20000;-57
2022/05/16 08:52:39;;;;;;;9.55;5.10;;;22.90;89.80;;;;;;6252045;22;20008;-57
2022/05/16 08:55:06;;;;;;;7.13;4.30;;;24.90;79.50;;;;;;6249400;22;20000;-56
2022/05/16 08:57:36;;;;;;;14.20;4.93;;;26.70;67.40;;;;;;6256195;22;20004;-57
2022/05/16 09:00:10;;;;;;;13.48;4.55;;;27.30;61.30;;;;;;6229505;22;20062;-57
2022/05/16 09:02:36;;;;;;;7.90;4.35;;;26.50;59.90;;;;;;6251296;22;20110;-57
2022/05/16 09:05:21;;;;;;;9.02;4.25;;;25.00;64.70;;;;;;6251510;22;20007;-58
2022/05/16 09:07:52;;;;;;;10.23;5.20;;;23.20;76.30;;;;;;6260247;22;20407;-60
2022/05/16 09:10:51;;;;;;;13.55;5.28;;;22.60;80.90;;;;;;6249251;22;20004;-57
2022/05/16 09:13:25;;;;;;;11.52;4.95;;;22.80;83.30;;;;;;6252256;22;20035;-59
2022/05/16 09:16:07;;;;;;;12.85;4.88;;;23.30;81.50;;;;;;6258486;22;20427;-59
2022/05/16 09:18:51;;;;;;;10.15;4.93;;;23.20;83.10;;;;;;6258367;22;20003;-59
2022/05/16 09:21:20;;;;;;;13.60;4.85;;;23.20;83.20;;;;;;6252806;22;20014;-59
2022/05/16 09:24:02;;;;;;;11.25;5.00;;;24.20;76.60;;;;;;6251964;22;20015;-60
2022/05/16 09:26:40;;;;;;;8.60;4.53;;;25.70;70.20;;;;;;6196634;22;20197;-60
2022/05/16 09:29:14;;;;;;;12.32;4.50;;;27.20;62.90;;;;;;6235244;22;20010;-59
2022/05/16 09:31:43;;;;;;;13.55;4.55;;;27.00;63.70;;;;;;6260860;22;20029;-60
2022/05/16 09:34:09;;;;;;;8.77;4.45;;;28.60;60.20;;;;;;6256562;22;20457;-60
2022/05/16 09:36:36;;;;;;;12.77;4.43;;;28.40;57.70;;;;;;6256075;22;20364;-60
2022/05/16 09:39:03;;;;;;;11.45;4.78;;;27.70;57.70;;;;;;6250748;22;20115;-60
2022/05/16 09:41:37;;;;;;;10.02;4.32;;;27.70;58.10;;;;;;6253227;22;20031;-60
2022/05/16 09:44:26;;;;;;;;;;;27.80;59.30;;;;;;6250468;22;20035;-60
2022/05/16 09:47:12;;;;;;;9.93;5.30;;;29.30;56.10;;;;;;6251025;22;20399;-60
2022/05/16 09:49:38;;;;;;;16.50;4.68;;;29.10;55.80;;;;;;6251581;22;20030;-60
2022/05/16 09:52:03;;;;;;;7.35;4.43;;;30.40;53.90;;;;;;6253062;22;20219;-60
2022/05/16 09:54:30;;;;;;;11.85;4.13;;;31.70;50.70;;;;;;6250603;22;20563;-59
2022/05/16 09:57:19;;;;;;;11.48;4.45;;;31.20;49.70;;;;;;6254884;22;20458;-59
2022/05/16 10:00:00;;;;;;;7.45;4.63;;;30.60;49.30;;;;;;6255736;22;20392;-60
2022/05/16 10:02:27;;;;;;;8.00;4.38;;;28.80;53.60;;;;;;6253052;22;20034;-60
2022/05/16 10:04:56;;;;;;;11.32;3.83;;;27.20;57.40;;;;;;6250960;22;20114;-60
2022/05/16 10:07:29;;;;;;;11.07;3.90;;;29.00;54.70;;;;;;6251728;22;20084;-60
2022/05/16 10:09:54;;;;;;;5.35;3.83;;;29.20;54.30;;;;;;6251334;22;20226;-61
2022/05/16 10:12:21;;;;;;;11.88;4.43;;;28.40;56.00;;;;;;6257797;22;20030;-60
2022/05/16 10:14:47;;;;;;;9.13;4.38;;;28.50;58.20;;;;;;6255446;22;20054;-61
2022/05/16 10:17:15;;;;;;;12.93;4.97;;;28.60;57.80;;;;;;6258692;22;20301;-60
2022/05/16 10:19:41;;;;;;;10.10;5.80;;;28.80;58.30;;;;;;6249203;22;20122;-60
2022/05/16 10:22:17;;;;;;;12.27;5.55;;;28.10;59.60;;;;;;6253460;22;20027;-60
2022/05/16 10:24:52;;;;;;;9.95;4.45;;;29.40;57.40;;;;;;6253663;22;20004;-60
2022/05/16 10:27:23;;;;;;;7.95;4.55;;;30.00;58.00;;;;;;6256064;22;20018;-60
2022/05/16 10:29:51;;;;;;;9.90;4.20;;;30.60;53.70;;;;;;6231168;22;20094;-60
2022/05/16 10:35:28;;;;;;;7.50;3.92;;;32.70;50.00;;;;;;6255390;22;20015;-60
2022/05/16 10:37:55;;;;;;;6.32;3.78;;;31.40;49.60;;;;;;6258313;22;20004;-60
2022/05/16 10:40:34;;;;;;;7.55;3.65;;;30.60;50.50;;;;;;6253375;22;20081;-61
2022/05/16 10:43:32;;;;;;;9.43;3.90;;;31.10;52.10;;;;;;6257628;22;20624;-60
2022/05/16 10:46:06;;;;;;;9.75;4.05;;;31.80;51.40;;;;;;6250175;22;20039;-59
2022/05/16 10:48:41;;;;;;;9.93;3.40;;;31.80;48.50;;;;;;6250056;22;20057;-60
2022/05/16 10:51:16;;;;;;;8.05;3.55;;;31.20;47.40;;;;;;6249808;22;19999;-60
2022/05/16 10:53:45;;;;;;;10.63;3.80;;;31.00;49.20;;;;;;6250489;22;20011;-60
2022/05/16 10:56:36;;;;;;;8.27;3.30;;;32.30;47.20;;;;;;6259449;22;20000;-59
2022/05/16 10:59:05;;;;;;;11.40;3.30;;;32.00;48.60;;;;;;6248080;22;20368;-59
2022/05/16 11:01:57;;;;;;;13.70;3.58;;;32.40;47.30;;;;;;6250517;22;20037;-60
2022/05/16 11:04:34;;;;;;;17.25;3.70;;;30.70;49.10;;;;;;6194571;22;19999;-60
2022/05/16 11:07:02;;;;;;;10.90;3.10;;;30.30;49.70;;;;;;6257604;22;20012;-60
2022/05/16 11:09:55;;;;;;;7.65;3.38;;;30.50;49.90;;;;;;6250697;22;20056;-61
2022/05/16 11:12:31;;;;;;;9.30;3.35;;;30.50;50.00;;;;;;6250077;22;20368;-60
2022/05/16 11:15:04;;;;;;;11.93;3.38;;;29.90;52.40;;;;;;6250702;22;20015;-60
2022/05/16 11:17:54;;;;;;;10.20;3.72;;;29.90;50.50;;;;;;6255630;22;20334;-60
2022/05/16 11:20:26;;;;;;;20.73;5.40;;;29.20;52.20;;;;;;6258882;22;20011;-60
2022/05/16 11:22:59;;;;;;;13.73;4.53;;;27.40;69.10;;;;;;6263237;22;20008;-60
2022/05/16 11:25:48;;;;;;;16.15;4.82;;;26.20;90.90;;;;;;6235745;22;20209;-59
2022/05/16 11:28:39;;;;;;;15.60;4.80;;;25.70;92.30;;;;;;6170617;22;20007;-60
2022/05/16 11:31:09;;;;;;;12.68;4.80;;;25.20;94.70;;;;;;6264713;22;19999;-60
2022/05/16 11:33:50;;;;;;;13.02;4.53;;;26.00;94.20;;;;;;6235061;22;20432;-60
2022/05/16 11:36:26;;;;;;;14.50;5.95;;;27.90;91.20;;;;;;6262793;22;20011;-61
2022/05/16 11:39:11;;;;;;;15.45;5.45;;;28.70;83.10;;;;;;6260324;22;20003;-59
2022/05/16 11:41:43;;;;;;;15.57;3.90;;;28.80;75.30;;;;;;6260248;22;20770;-60
2022/05/16 11:44:40;;;;;;;36.58;10.40;;;29.30;71.70;;;;;;6262985;22;20424;-60
2022/05/16 11:47:22;;;;;;;16.88;6.20;;;30.00;72.10;;;;;;6247196;22;20011;-61
2022/05/16 11:50:05;;;;;;;14.18;3.97;;;29.30;66.00;;;;;;6262495;22;20317;-60
2022/05/16 11:52:45;;;;;;;18.88;7.13;;;30.60;60.50;;;;;;6239410;22;20007;-59
2022/05/16 12:01:07;;;;;;;;;;;30.40;58.10;;;;;;6262009;22;20055;-60
2022/05/16 12:03:47;;;;;;;14.40;4.13;;;30.50;57.40;;;;;;6262694;22;20065;-60
2022/05/16 12:06:26;;;;;;;10.52;4.05;;;30.00;59.80;;;;;;6265315;22;20402;-60
2022/05/16 12:09:14;;;;;;;8.95;3.70;;;29.40;63.10;;;;;;6261247;22;20008;-60
2022/05/16 12:11:51;;;;;;;14.10;3.90;;;28.80;65.90;;;;;;6263358;22;20707;-60
2022/05/16 12:14:34;;;;;;;10.52;4.07;;;28.20;64.70;;;;;;6262537;22;20007;-61
2022/05/16 12:17:18;;;;;;;14.73;4.97;;;27.60;68.80;;;;;;6265237;22;20031;-60
2022/05/16 12:19:46;;;;;;;8.80;4.80;;;26.90;79.70;;;;;;6263065;22;20310;-60
2022/05/16 12:22:32;;;;;;;9.05;4.28;;;27.20;85.10;;;;;;6238539;22;20004;-61
2022/05/16 12:25:05;;;;;;;10.82;5.30;;;27.50;85.40;;;;;;6247332;22;20027;-61
2022/05/16 12:27:34;;;;;;;12.70;4.70;;;27.40;77.50;;;;;;6265481;22;20019;-61
2022/05/16 12:30:01;;;;;;;17.35;5.32;;;27.30;77.90;;;;;;6263662;22;20092;-61
2022/05/16 12:32:30;;;;;;;10.10;4.90;;;27.20;78.70;;;;;;6267453;22;20008;-61
2022/05/16 12:35:08;;;;;;;9.40;4.57;;;27.40;80.40;;;;;;6265098;22;20003;-61
2022/05/16 12:37:34;;;;;;;13.77;5.47;;;27.80;78.50;;;;;;6267846;22;19995;-61
2022/05/16 12:40:08;;;;;;;10.82;4.93;;;28.00;75.70;;;;;;6264933;22;20000;-61
2022/05/16 12:42:54;;;;;;;15.35;5.35;;;28.50;76.50;;;;;;6263014;22;20010;-61
2022/05/16 12:45:42;;;;;;;11.88;5.97;;;28.30;72.10;;;;;;6264478;22;20432;-61
2022/05/16 12:48:21;;;;;;;13.15;5.97;;;28.00;74.20;;;;;;6265044;22;20020;-61
2022/05/16 12:50:55;;;;;;;16.33;6.30;;;27.80;76.70;;;;;;6263741;22;20142;-61
2022/05/16 12:53:45;;;;;;;15.85;5.68;;;27.60;76.60;;;;;;6266449;22;20082;-61
2022/05/16 12:56:22;;;;;;;8.73;5.32;;;27.40;79.20;;;;;;6265406;22;20004;-60
2022/05/16 12:59:03;;;;;;;11.60;5.47;;;27.50;77.30;;;;;;6263275;22;20075;-61
2022/05/16 13:01:37;;;;;;;11.65;5.65;;;26.80;78.80;;;;;;6265444;22;20078;-61
2022/05/16 13:04:32;;;;;;;14.20;5.95;;;26.60;81.60;;;;;;6262727;22;20367;-61
2022/05/16 13:07:27;;;;;;;9.70;6.03;;;26.30;83.50;;;;;;6265154;22;20317;-61
2022/05/16 13:09:56;;;;;;;21.52;6.18;;;26.30;83.50;;;;;;6262892;22;20004;-60
2022/05/16 13:12:44;;;;;;;16.63;6.18;;;26.50;82.10;;;;;;6264783;22;20012;-60
2022/05/16 13:15:14;;;;;;;10.57;5.50;;;26.30;84.00;;;;;;6265185;22;20343;-61
2022/05/16 13:17:48;;;;;;;16.48;6.50;;;26.20;82.80;;;;;;6240261;22;20251;-60
2022/05/16 13:20:18;;;;;;;;;;;25.50;85.40;;;;;;6264537;22;20316;-62
2022/05/16 13:22:45;;;;;;;15.98;6.68;;;25.40;86.10;;;;;;6260323;22;19904;-61
2022/05/16 13:25:11;;;;;;;18.48;5.72;;;25.40;87.30;;;;;;6254722;22;20019;-60
2022/05/16 13:30:22;;;;;;;14.83;6.67;;;26.00;86.40;;;;;;6252488;22;20080;-57